Time;durP1;ratioP1;P1;durP2;ratioP2;P2;SDS_P1;SDS_P2;PMS_P1;PMS_P2;Temp;Humidity;BMP_temperature;BMP_pressure;BME280_temperature;BME280_humidity;BME280_pressure;Samples;Min_cycle;Max_cycle;Signal;HPM_P1;HPM_P2
2022/03/27 00:03:12;;;;;;;;;;;10.30;99.90;;;;;;10435403;28;83888;-47
2022/03/27 00:08:13;;;;;;;;;;;10.30;99.90;;;;;;10413827;28;86054;-46
2022/03/27 00:13:13;;;;;;;;;;;10.10;99.90;;;;;;10434125;28;84323;-47
2022/03/27 00:18:14;;;;;;;;;;;10.10;99.90;;;;;;10446847;27;86261;-49
2022/03/27 00:23:15;;;;;;;;;;;10.00;99.90;;;;;;10453273;22;84763;-51
2022/03/27 00:28:15;;;;;;;;;;;10.00;99.90;;;;;;10453101;28;83359;-49
2022/03/27 00:33:16;;;;;;;;;;;10.00;99.90;;;;;;10435533;28;84395;-50
2022/03/27 00:38:17;;;;;;;;;;;9.90;99.90;;;;;;10423733;28;86278;-51
2022/03/27 00:43:21;;;;;;;;;;;9.90;99.90;;;;;;10414773;28;85981;-52
2022/03/27 00:48:22;;;;;;;;;;;9.90;99.90;;;;;;10437962;28;84129;-51
2022/03/27 00:53:22;;;;;;;;;;;9.70;99.90;;;;;;10449828;27;83256;-52
2022/03/27 00:58:23;;;;;;;;;;;9.80;99.90;;;;;;10434025;28;84199;-52
2022/03/27 01:03:25;;;;;;;;;;;9.80;99.90;;;;;;10452187;27;83773;-51
2022/03/27 01:13:52;;;;;;;;;;;9.80;99.90;;;;;;10431698;27;83506;-52
2022/03/27 01:18:53;;;;;;;;;;;9.80;99.90;;;;;;10444735;28;84002;-54
2022/03/27 01:23:53;;;;;;;;;;;9.80;99.90;;;;;;10437052;28;84128;-56
2022/03/27 01:28:54;;;;;;;;;;;9.60;99.90;;;;;;10439890;28;83435;-48
2022/03/27 01:33:55;;;;;;;;;;;9.60;99.90;;;;;;10442266;27;84075;-47
2022/03/27 01:38:56;;;;;;;;;;;9.60;99.90;;;;;;10434376;28;83692;-49
2022/03/27 01:43:57;;;;;;;;;;;9.60;99.90;;;;;;10417772;28;85054;-50
2022/03/27 01:49:01;;;;;;;;;;;9.50;99.90;;;;;;10436905;28;83787;-49
2022/03/27 01:54:02;;;;;;;;;;;9.50;99.90;;;;;;10437206;28;84020;-53
2022/03/27 01:59:04;;;;;;;;;;;9.50;99.90;;;;;;10444541;28;84130;-52
2022/03/27 02:04:06;;;;;;;;;;;9.50;99.90;;;;;;10437361;27;84137;-50
2022/03/27 02:09:06;;;;;;;;;;;9.60;99.90;;;;;;10415267;28;86389;-47
2022/03/27 02:14:08;;;;;;;;;;;9.50;99.90;;;;;;10439015;28;83723;-49
2022/03/27 02:19:09;;;;;;;;;;;9.50;99.90;;;;;;10435824;28;83814;-52
2022/03/27 02:24:10;;;;;;;;;;;9.50;99.90;;;;;;10417779;28;85058;-51
2022/03/27 02:29:12;;;;;;;;;;;9.40;99.90;;;;;;10435311;28;83419;-46
2022/03/27 02:34:13;;;;;;;;;;;9.50;99.90;;;;;;10444901;28;83826;-50
2022/03/27 02:39:13;;;;;;;;;;;9.50;99.90;;;;;;10432135;28;83970;-53
2022/03/27 02:44:14;;;;;;;;;;;9.50;99.90;;;;;;10427986;28;83357;-48
2022/03/27 02:49:15;;;;;;;;;;;9.50;99.90;;;;;;10432262;28;83721;-50
2022/03/27 02:54:16;;;;;;;;;;;9.40;93.90;;;;;;10417035;28;84830;-47
2022/03/27 02:59:16;;;;;;;;;;;9.40;16.60;;;;;;10415427;28;85168;-46
2022/03/27 03:04:17;;;;;;;;;;;9.40;23.60;;;;;;10452387;28;84690;-46
2022/03/27 03:09:18;;;;;;;;;;;9.30;18.60;;;;;;10439247;28;83788;-45
2022/03/27 03:14:18;;;;;;;;;;;9.30;56.80;;;;;;10442065;28;83672;-43
2022/03/27 03:19:19;;;;;;;;;;;9.20;51.80;;;;;;10448300;28;84098;-45
2022/03/27 03:24:19;;;;;;;;;;;9.10;92.40;;;;;;10408579;28;85986;-44
2022/03/27 03:29:21;;;;;;;;;;;9.10;27.90;;;;;;10436416;28;84226;-46
2022/03/27 03:34:21;;;;;;;;;;;9.10;3.30;;;;;;10419951;28;86279;-51
2022/03/27 03:39:22;;;;;;;;;;;9.00;1.00;;;;;;10428574;28;83288;-49
2022/03/27 03:44:24;;;;;;;;;;;9.10;2.80;;;;;;10434280;27;84008;-49
2022/03/27 03:49:25;;;;;;;;;;;9.00;1.00;;;;;;10449899;28;83766;-48
2022/03/27 03:54:25;;;;;;;;;;;8.90;1.00;;;;;;10440803;27;84096;-45
2022/03/27 03:59:28;;;;;;;;;;;8.80;45.90;;;;;;10430981;27;83963;-46
2022/03/27 04:04:30;;;;;;;;;;;8.90;26.80;;;;;;10444156;28;83734;-47
2022/03/27 04:09:31;;;;;;;;;;;8.80;31.50;;;;;;10432253;28;84179;-47
2022/03/27 04:14:36;;;;;;;;;;;8.70;29.80;;;;;;10457125;27;83752;-45
2022/03/27 04:19:36;;;;;;;;;;;8.80;29.00;;;;;;10415347;28;86066;-48
2022/03/27 04:24:37;;;;;;;;;;;8.70;14.80;;;;;;10448713;27;84147;-45
2022/03/27 04:29:37;;;;;;;;;;;8.70;1.00;;;;;;10439504;28;83828;-52
2022/03/27 04:34:38;;;;;;;;;;;8.50;6.50;;;;;;10440153;27;84155;-47
2022/03/27 04:39:38;;;;;;;;;;;8.40;21.80;;;;;;10432520;28;84533;-47
2022/03/27 04:44:39;;;;;;;;;;;8.40;16.30;;;;;;10456111;27;84039;-54
2022/03/27 04:49:39;;;;;;;;;;;8.30;72.30;;;;;;10432539;28;84831;-50
2022/03/27 04:54:40;;;;;;;;;;;8.30;67.90;;;;;;10431173;28;83680;-51
2022/03/27 04:59:41;;;;;;;;;;;8.30;35.60;;;;;;10453156;28;83412;-47
2022/03/27 05:04:41;;;;;;;;;;;8.30;34.50;;;;;;10455496;27;83697;-47
2022/03/27 05:09:42;;;;;;;;;;;8.20;1.00;;;;;;10429676;28;84415;-47
2022/03/27 05:14:43;;;;;;;;;;;8.10;1.00;;;;;;10444672;27;84062;-50
2022/03/27 05:19:44;;;;;;;;;;;8.10;1.00;;;;;;10431645;27;84152;-51
2022/03/27 05:24:47;;;;;;;;;;;8.00;1.00;;;;;;10443442;27;83892;-53
2022/03/27 05:29:48;;;;;;;;;;;7.90;1.00;;;;;;10441668;28;84711;-55
2022/03/27 05:34:48;;;;;;;;;;;7.90;1.00;;;;;;10446016;27;84520;-50
2022/03/27 05:39:49;;;;;;;;;;;7.90;1.00;;;;;;10412382;28;85332;-54
2022/03/27 05:44:49;;;;;;;;;;;7.90;1.00;;;;;;10452112;27;83413;-55
2022/03/27 05:49:50;;;;;;;;;;;7.90;1.00;;;;;;10439541;27;83784;-50
2022/03/27 05:54:51;;;;;;;;;;;8.00;1.00;;;;;;10411886;27;84175;-51
2022/03/27 05:59:51;;;;;;;;;;;8.00;1.00;;;;;;10468201;27;83415;-52
2022/03/27 06:04:52;;;;;;;;;;;7.90;1.00;;;;;;10456720;27;83472;-52
2022/03/27 06:09:54;;;;;;;;;;;7.90;1.00;;;;;;10441838;28;84116;-49
2022/03/27 06:14:54;;;;;;;;;;;8.00;1.00;;;;;;10430557;28;85850;-54
2022/03/27 06:19:55;;;;;;;;;;;8.00;1.00;;;;;;10415308;27;84142;-50
2022/03/27 06:24:55;;;;;;;;;;;7.90;1.00;;;;;;10468778;22;84057;-52
2022/03/27 06:29:56;;;;;;;;;;;8.00;1.00;;;;;;10428137;28;84604;-48
2022/03/27 06:34:57;;;;;;;;;;;7.90;1.00;;;;;;10424235;28;83839;-49
2022/03/27 06:39:58;;;;;;;;;;;8.00;1.00;;;;;;10434536;28;84154;-47
2022/03/27 06:44:58;;;;;;;;;;;8.00;1.00;;;;;;10432516;27;84061;-47
2022/03/27 06:50:01;;;;;;;;;;;8.10;1.00;;;;;;10425875;28;84104;-48
2022/03/27 06:55:02;;;;;;;;;;;8.20;1.00;;;;;;10428323;28;84033;-47
2022/03/27 07:05:23;;;;;;;;;;;8.10;1.00;;;;;;10430331;28;84117;-46
2022/03/27 07:10:24;;;;;;;;;;;8.10;1.00;;;;;;10424136;28;84191;-50
2022/03/27 07:15:24;;;;;;;;;;;8.20;1.00;;;;;;10386673;28;84523;-45
2022/03/27 07:20:29;;;;;;;;;;;8.50;1.00;;;;;;10396058;28;84222;-50
2022/03/27 07:25:33;;;;;;;;;;;8.60;1.00;;;;;;10414517;28;83918;-47
2022/03/27 07:30:34;;;;;;;;;;;8.80;1.00;;;;;;10427359;27;84748;-53
2022/03/27 07:35:34;;;;;;;;;;;8.90;1.00;;;;;;10405834;28;84027;-51
2022/03/27 07:40:35;;;;;;;;;;;9.00;1.00;;;;;;10430397;28;83197;-53
2022/03/27 07:45:36;;;;;;;;;;;9.70;1.00;;;;;;10396819;28;84131;-53
2022/03/27 07:50:36;;;;;;;;;;;10.60;99.90;;;;;;10403155;28;83720;-65
2022/03/27 07:55:37;;;;;;;;;;;11.00;99.90;;;;;;10402960;28;85302;-58
2022/03/27 08:00:37;;;;;;;;;;;11.80;1.00;;;;;;10388473;28;83854;-64
2022/03/27 08:05:38;;;;;;;;;;;12.60;1.00;;;;;;10407803;28;83641;-64
2022/03/27 08:10:39;;;;;;;;;;;12.90;99.90;;;;;;10395189;28;84114;-65
2022/03/27 08:15:39;;;;;;;;;;;13.50;99.90;;;;;;10410100;28;84084;-48
2022/03/27 08:20:40;;;;;;;;;;;14.10;1.00;;;;;;10395240;28;83990;-46
2022/03/27 08:31:01;;;;;;;;;;;15.50;1.00;;;;;;10414055;28;83691;-46
2022/03/27 08:36:02;;;;;;;;;;;15.70;1.00;;;;;;10413558;28;84075;-46
2022/03/27 08:41:04;;;;;;;;;;;16.30;1.00;;;;;;10413243;28;83720;-47
2022/03/27 08:46:05;;;;;;;;;;;16.80;1.00;;;;;;10413399;28;83734;-50
2022/03/27 08:51:20;;;;;;;;;;;17.10;1.00;;;;;;10409077;28;84284;-51
2022/03/27 08:56:21;;;;;;;;;;;17.30;1.00;;;;;;10404008;28;83488;-46
2022/03/27 09:01:22;;;;;;;;;;;17.90;1.00;;;;;;10393297;28;83987;-49
2022/03/27 09:06:25;;;;;;;;;;;17.90;1.00;;;;;;10364488;28;84269;-46
2022/03/27 09:11:28;;;;;;;;;;;18.40;1.00;;;;;;10409438;28;84016;-45
2022/03/27 09:16:29;;;;;;;;;;;18.30;99.90;;;;;;10399009;28;83628;-47
2022/03/27 09:21:29;;;;;;;;;;;18.20;99.90;;;;;;10406143;28;83803;-50
2022/03/27 09:26:32;;;;;;;;;;;18.60;99.90;;;;;;10412009;28;83639;-47
2022/03/27 09:31:32;;;;;;;;;;;19.20;1.00;;;;;;10411817;28;84328;-48
2022/03/27 09:36:35;;;;;;;;;;;19.80;1.00;;;;;;10398729;28;86753;-46
2022/03/27 09:41:41;;;;;;;;;;;20.40;1.00;;;;;;10382112;28;83853;-47
2022/03/27 09:46:51;;;;;;;;;;;20.50;99.90;;;;;;10375021;28;84135;-45
2022/03/27 09:51:51;;;;;;;;;;;20.70;99.90;;;;;;10400129;28;83668;-48
2022/03/27 09:56:53;;;;;;;;;;;20.80;4.20;;;;;;10383720;28;85152;-46
2022/03/27 10:01:54;;;;;;;;;;;20.60;1.00;;;;;;10375064;28;84025;-46
2022/03/27 10:06:56;;;;;;;;;;;20.90;1.00;;;;;;10370943;28;83830;-47
2022/03/27 10:11:56;;;;;;;;;;;21.00;1.00;;;;;;10370410;28;83958;-46
2022/03/27 10:16:57;;;;;;;;;;;20.80;1.00;;;;;;10369846;28;84218;-46
2022/03/27 10:21:58;;;;;;;;;;;21.30;1.00;;;;;;10370331;28;83637;-46
2022/03/27 10:27:01;;;;;;;;;;;21.30;1.00;;;;;;10378117;28;85207;-46
2022/03/27 10:32:04;;;;;;;;;;;20.10;1.00;;;;;;10387468;28;85941;-46
2022/03/27 10:37:12;;;;;;;;;;;21.10;1.00;;;;;;10388811;28;84137;-47
2022/03/27 10:42:15;;;;;;;;;;;21.60;1.00;;;;;;10384813;28;85078;-40
2022/03/27 10:47:17;;;;;;;;;;;21.70;1.00;;;;;;10368459;28;83779;-43
2022/03/27 10:52:17;;;;;;;;;;;20.60;1.00;;;;;;10369968;28;84483;-44
2022/03/27 10:57:31;;;;;;;;;;;20.30;1.00;;;;;;10368003;28;83701;-43
2022/03/27 11:02:43;;;;;;;;;;;20.40;1.00;;;;;;10370612;28;83756;-44
2022/03/27 11:07:43;;;;;;;;;;;19.40;1.00;;;;;;10389617;28;85352;-45
2022/03/27 11:12:44;;;;;;;;;;;20.10;1.00;;;;;;10392261;28;83863;-42
2022/03/27 11:17:45;;;;;;;;;;;19.90;1.00;;;;;;10395500;28;96791;-44
2022/03/27 11:22:52;;;;;;;;;;;20.70;1.00;;;;;;10395553;28;84040;-44
2022/03/27 11:28:02;;;;;;;;;;;20.40;1.00;;;;;;10395986;28;84257;-46
2022/03/27 11:33:19;;;;;;;;;;;20.60;99.90;;;;;;10394938;28;83731;-46
2022/03/27 11:38:21;;;;;;;;;;;20.80;99.90;;;;;;10397366;28;84187;-45
2022/03/27 11:43:25;;;;;;;;;;;20.70;99.90;;;;;;10395759;28;84151;-45
2022/03/27 11:48:25;;;;;;;;;;;20.30;99.90;;;;;;10398624;28;84091;-48
2022/03/27 11:53:30;;;;;;;;;;;20.30;99.90;;;;;;10393368;28;84093;-48
2022/03/27 11:58:30;;;;;;;;;;;21.20;99.90;;;;;;10382149;28;84125;-43
2022/03/27 12:03:31;;;;;;;;;;;21.40;99.90;;;;;;10414387;28;84621;-44
2022/03/27 12:08:32;;;;;;;;;;;21.20;99.90;;;;;;10409684;28;83852;-46
2022/03/27 12:13:37;;;;;;;;;;;21.40;99.90;;;;;;10393379;28;84212;-46
2022/03/27 12:18:39;;;;;;;;;;;21.70;99.90;;;;;;10374754;28;83761;-43
2022/03/27 12:23:46;;;;;;;;;;;21.30;99.90;;;;;;10414642;22;83675;-47
2022/03/27 12:34:06;;;;;;;;;;;21.60;99.90;;;;;;10394011;28;85189;-48
2022/03/27 12:39:13;;;;;;;;;;;21.50;99.90;;;;;;10374472;28;83973;-43
2022/03/27 12:44:14;;;;;;;;;;;21.00;99.90;;;;;;10369172;28;84047;-45
2022/03/27 12:49:14;;;;;;;;;;;21.90;99.90;;;;;;10344896;28;83895;-48
2022/03/27 12:54:15;;;;;;;;;;;21.50;99.90;;;;;;10330459;28;84518;-44
2022/03/27 12:59:19;;;;;;;;;;;21.70;99.90;;;;;;10345757;28;83859;-46
2022/03/27 13:04:19;;;;;;;;;;;21.80;99.90;;;;;;10358729;28;84192;-47
2022/03/27 13:09:21;;;;;;;;;;;21.40;99.90;;;;;;10350220;28;83959;-52
2022/03/27 13:14:22;;;;;;;;;;;21.60;99.90;;;;;;10348257;28;83508;-49
2022/03/27 13:19:23;;;;;;;;;;;21.80;99.90;;;;;;10341249;28;84086;-47
2022/03/27 13:24:25;;;;;;;;;;;22.10;99.90;;;;;;10338235;28;84058;-49
2022/03/27 13:29:25;;;;;;;;;;;22.80;99.90;;;;;;10342884;28;85013;-47
2022/03/27 13:34:26;;;;;;;;;;;21.80;99.90;;;;;;10329249;28;84055;-48
2022/03/27 13:39:27;;;;;;;;;;;21.40;99.90;;;;;;10317811;28;84108;-49
2022/03/27 13:44:28;;;;;;;;;;;21.20;99.90;;;;;;10351144;28;83854;-63
2022/03/27 13:49:29;;;;;;;;;;;21.20;99.90;;;;;;10326776;28;84108;-55
2022/03/27 13:54:29;;;;;;;;;;;22.50;99.90;;;;;;10342309;28;83627;-56
2022/03/27 13:59:32;;;;;;;;;;;23.10;99.90;;;;;;10347381;28;84052;-57
2022/03/27 14:04:33;;;;;;;;;;;22.70;99.90;;;;;;10342284;28;83308;-53
2022/03/27 14:09:34;;;;;;;;;;;22.70;99.90;;;;;;10329414;28;83218;-57
2022/03/27 14:14:35;;;;;;;;;;;22.70;99.90;;;;;;10357028;28;83980;-56
2022/03/27 14:19:35;;;;;;;;;;;22.90;96.10;;;;;;10369185;28;83326;-53
2022/03/27 14:24:36;;;;;;;;;;;23.10;97.80;;;;;;10369269;28;83244;-53
2022/03/27 14:29:36;;;;;;;;;;;23.10;70.80;;;;;;10369387;28;83570;-57
2022/03/27 14:34:37;;;;;;;;;;;22.90;47.80;;;;;;10360165;28;84116;-58
2022/03/27 14:39:38;;;;;;;;;;;23.50;40.60;;;;;;10360194;28;84058;-54
2022/03/27 14:44:38;;;;;;;;;;;23.10;16.10;;;;;;10359851;28;84125;-56
2022/03/27 14:49:39;;;;;;;;;;;23.20;25.90;;;;;;10367355;28;85637;-54
2022/03/27 14:59:58;;;;;;;;;;;21.80;2.50;;;;;;10362834;28;84015;-54
2022/03/27 15:04:59;;;;;;;;;;;21.30;7.50;;;;;;10366560;28;83923;-54
2022/03/27 15:10:00;;;;;;;;;;;20.70;1.00;;;;;;10358185;28;84045;-58
2022/03/27 15:15:00;;;;;;;;;;;19.70;1.00;;;;;;10366348;28;86014;-61
2022/03/27 15:20:01;;;;;;;;;;;19.10;17.60;;;;;;10354786;28;83601;-57
2022/03/27 15:25:02;;;;;;;;;;;18.60;24.20;;;;;;10364334;28;83451;-56
2022/03/27 15:30:04;;;;;;;;;;;18.40;22.60;;;;;;10359522;28;83598;-57
2022/03/27 15:35:05;;;;;;;;;;;18.10;38.90;;;;;;10360649;28;84393;-56
2022/03/27 15:40:06;;;;;;;;;;;17.90;82.70;;;;;;10358759;28;84492;-59
2022/03/27 15:45:07;;;;;;;;;;;17.70;99.90;;;;;;10359375;28;84195;-59
2022/03/27 15:50:09;;;;;;;;;;;17.50;99.90;;;;;;10358014;28;84336;-56
2022/03/27 15:55:10;;;;;;;;;;;17.40;99.90;;;;;;10357137;28;83442;-56
2022/03/27 16:00:13;;;;;;;;;;;17.30;99.90;;;;;;10346255;28;84287;-54
2022/03/27 16:05:14;;;;;;;;;;;17.20;99.90;;;;;;10335272;28;83325;-54
2022/03/27 16:10:14;;;;;;;;;;;17.10;99.90;;;;;;10341732;28;84781;-53
2022/03/27 16:15:15;;;;;;;;;;;16.90;99.90;;;;;;10344225;28;84196;-54
2022/03/27 16:20:15;;;;;;;;;;;16.90;99.90;;;;;;10335748;28;83550;-55
2022/03/27 16:25:16;;;;;;;;;;;16.90;1.00;;;;;;10340076;28;85831;-56
2022/03/27 16:30:16;;;;;;;;;;;16.80;1.00;;;;;;10339114;28;83381;-53
2022/03/27 16:35:17;;;;;;;;;;;16.60;1.00;;;;;;10370549;28;84592;-57
2022/03/27 16:40:18;;;;;;;;;;;16.50;1.00;;;;;;10364142;28;84115;-57
2022/03/27 16:45:19;;;;;;;;;;;16.40;1.00;;;;;;10370725;28;83943;-56
2022/03/27 16:50:19;;;;;;;;;;;16.50;1.00;;;;;;10361662;28;84034;-63
2022/03/27 16:55:20;;;;;;;;;;;16.40;1.00;;;;;;10373958;28;84196;-63
2022/03/27 17:00:21;;;;;;;;;;;16.30;1.00;;;;;;10371224;28;84819;-63
2022/03/27 17:05:21;;;;;;;;;;;16.20;1.00;;;;;;10370756;28;85253;-61
2022/03/27 17:10:23;;;;;;;;;;;16.20;1.00;;;;;;10372286;28;83392;-61
2022/03/27 17:15:25;;;;;;;;;;;16.00;1.00;;;;;;10363354;28;83899;-58
2022/03/27 17:20:25;;;;;;;;;;;16.00;1.00;;;;;;10368985;28;83521;-61
2022/03/27 17:25:26;;;;;;;;;;;15.90;1.00;;;;;;10358865;28;83911;-58
2022/03/27 17:30:27;;;;;;;;;;;15.80;56.20;;;;;;10355168;28;83435;-57
2022/03/27 17:35:27;;;;;;;;;;;15.70;99.90;;;;;;10357873;28;84810;-55
2022/03/27 17:40:29;;;;;;;;;;;15.60;99.90;;;;;;10347527;28;84766;-58
2022/03/27 17:45:29;;;;;;;;;;;15.40;1.00;;;;;;10358202;28;84103;-58
2022/03/27 17:50:30;;;;;;;;;;;15.30;1.00;;;;;;10352245;28;85195;-58
2022/03/27 17:55:30;;;;;;;;;;;15.10;1.00;;;;;;10338595;28;83411;-59
2022/03/27 18:00:31;;;;;;;;;;;15.10;99.90;;;;;;10346532;28;84211;-61
2022/03/27 18:05:32;;;;;;;;;;;14.90;99.90;;;;;;10364007;28;83974;-57
2022/03/27 18:10:33;;;;;;;;;;;14.80;1.00;;;;;;10352043;28;84591;-56
2022/03/27 18:15:33;;;;;;;;;;;14.70;1.00;;;;;;10351926;28;83999;-55
2022/03/27 18:20:35;;;;;;;;;;;14.60;99.90;;;;;;10353228;28;84983;-58
2022/03/27 18:25:36;;;;;;;;;;;14.40;99.90;;;;;;10402796;22;83468;-53
2022/03/27 18:30:36;;;;;;;;;;;14.40;1.00;;;;;;10390858;28;86206;-47
2022/03/27 18:35:37;;;;;;;;;;;14.20;1.00;;;;;;10361130;28;83765;-58
2022/03/27 18:40:38;;;;;;;;;;;14.20;99.90;;;;;;10349633;28;83358;-54
2022/03/27 18:45:39;;;;;;;;;;;14.10;99.90;;;;;;10355559;28;83968;-52
2022/03/27 18:50:39;;;;;;;;;;;14.00;99.90;;;;;;10337040;28;83516;-53
2022/03/27 18:55:41;;;;;;;;;;;13.90;1.00;;;;;;10360010;28;84126;-56
2022/03/27 19:00:41;;;;;;;;;;;13.90;1.00;;;;;;10365779;28;83265;-55
2022/03/27 19:05:45;;;;;;;;;;;13.70;1.00;;;;;;10360529;28;83918;-50
2022/03/27 19:10:46;;;;;;;;;;;13.60;99.90;;;;;;10343000;28;83983;-53
2022/03/27 19:15:47;;;;;;;;;;;13.50;1.00;;;;;;10358111;28;83796;-52
2022/03/27 19:20:49;;;;;;;;;;;13.40;1.00;;;;;;10359315;28;83514;-54
2022/03/27 19:25:51;;;;;;;;;;;13.40;99.90;;;;;;10353195;28;83687;-54
2022/03/27 19:30:52;;;;;;;;;;;13.30;99.90;;;;;;10352993;28;83418;-58
2022/03/27 19:35:53;;;;;;;;;;;13.20;1.00;;;;;;10356942;28;83384;-50
2022/03/27 19:40:54;;;;;;;;;;;13.10;1.00;;;;;;10355912;28;83775;-55
2022/03/27 19:45:54;;;;;;;;;;;13.10;1.00;;;;;;10351229;28;84040;-54
2022/03/27 19:50:55;;;;;;;;;;;13.00;1.00;;;;;;10343670;28;84179;-48
2022/03/27 19:55:55;;;;;;;;;;;13.00;1.00;;;;;;10340349;28;84210;-50
2022/03/27 20:00:56;;;;;;;;;;;13.00;99.90;;;;;;10337140;28;85158;-48
2022/03/27 20:05:57;;;;;;;;;;;12.90;99.90;;;;;;10315627;28;85330;-50
2022/03/27 20:10:57;;;;;;;;;;;12.80;1.00;;;;;;10338042;28;85476;-45
2022/03/27 20:16:00;;;;;;;;;;;12.70;1.00;;;;;;10341718;28;84153;-49
2022/03/27 20:21:01;;;;;;;;;;;12.60;1.00;;;;;;10358439;28;83966;-50
2022/03/27 20:26:02;;;;;;;;;;;12.60;1.00;;;;;;10372287;28;83906;-49
2022/03/27 20:31:03;;;;;;;;;;;12.50;99.90;;;;;;10371838;28;83812;-49
2022/03/27 20:36:04;;;;;;;;;;;12.50;99.90;;;;;;10369777;28;83735;-50
2022/03/27 20:41:04;;;;;;;;;;;12.40;1.00;;;;;;10355115;28;83985;-51
2022/03/27 20:46:05;;;;;;;;;;;12.30;1.00;;;;;;10357654;28;83595;-47
2022/03/27 20:51:06;;;;;;;;;;;12.30;1.00;;;;;;10363943;28;83847;-53
2022/03/27 20:56:06;;;;;;;;;;;12.20;1.00;;;;;;10371323;28;84674;-55
2022/03/27 21:01:08;;;;;;;;;;;12.30;1.00;;;;;;10361016;28;83569;-54
2022/03/27 21:06:08;;;;;;;;;;;12.20;1.00;;;;;;10383282;28;86225;-58
2022/03/27 21:11:09;;;;;;;;;;;12.10;1.00;;;;;;10354932;28;84166;-56
2022/03/27 21:16:10;;;;;;;;;;;12.10;37.10;;;;;;10368488;28;92773;-54
2022/03/27 21:21:12;;;;;;;;;;;12.00;99.90;;;;;;10351144;28;84250;-54
2022/03/27 21:26:12;;;;;;;;;;;11.90;99.90;;;;;;10353140;28;86064;-51
2022/03/27 21:31:13;;;;;;;;;;;11.80;99.90;;;;;;10351136;28;84154;-52
2022/03/27 21:36:14;;;;;;;;;;;11.80;99.90;;;;;;10344921;28;85010;-53
2022/03/27 21:41:14;;;;;;;;;;;11.70;1.00;;;;;;10360128;28;83456;-55
2022/03/27 21:46:15;;;;;;;;;;;11.60;1.00;;;;;;10361335;28;83388;-55
2022/03/27 21:51:16;;;;;;;;;;;11.60;1.00;;;;;;10354938;28;83563;-52
2022/03/27 21:56:16;;;;;;;;;;;11.50;1.00;;;;;;10353636;28;83418;-54
2022/03/27 22:01:18;;;;;;;;;;;11.40;1.00;;;;;;10349227;28;86475;-51
2022/03/27 22:06:18;;;;;;;;;;;11.40;1.00;;;;;;10333208;28;85160;-54
2022/03/27 22:11:19;;;;;;;;;;;11.30;1.00;;;;;;10351617;28;85042;-50
2022/03/27 22:16:19;;;;;;;;;;;11.20;1.00;;;;;;10368019;28;84563;-54
2022/03/27 22:21:20;;;;;;;;;;;11.10;28.40;;;;;;10371535;28;85153;-55
2022/03/27 22:26:21;;;;;;;;;;;11.20;43.10;;;;;;10358161;28;86000;-57
2022/03/27 22:31:22;;;;;;;;;;;11.00;99.90;;;;;;10360088;28;85644;-53
2022/03/27 22:36:22;;;;;;;;;;;11.10;99.90;;;;;;10369529;28;84904;-51
2022/03/27 22:41:24;;;;;;;;;;;11.00;99.90;;;;;;10370169;28;84180;-52
2022/03/27 22:46:26;;;;;;;;;;;10.90;99.90;;;;;;10369451;28;86897;-54
2022/03/27 22:51:26;;;;;;;;;;;10.90;99.90;;;;;;10371812;28;84056;-48
2022/03/27 22:56:27;;;;;;;;;;;10.80;99.90;;;;;;10368147;28;85062;-54
2022/03/27 23:01:28;;;;;;;;;;;10.80;99.90;;;;;;10340739;28;84796;-50
2022/03/27 23:06:28;;;;;;;;;;;10.80;99.90;;;;;;10357187;28;85387;-49
2022/03/27 23:11:29;;;;;;;;;;;10.70;99.90;;;;;;10359623;28;84196;-53
2022/03/27 23:16:29;;;;;;;;;;;10.60;99.90;;;;;;10342665;28;84111;-53
2022/03/27 23:21:30;;;;;;;;;;;10.60;99.90;;;;;;10357094;28;85000;-51
2022/03/27 23:26:30;;;;;;;;;;;10.60;99.90;;;;;;10354128;28;85691;-49
2022/03/27 23:31:31;;;;;;;;;;;10.60;99.90;;;;;;10350237;28;84244;-49
2022/03/27 23:36:32;;;;;;;;;;;10.50;99.90;;;;;;10351569;28;87787;-50
2022/03/27 23:41:32;;;;;;;;;;;10.50;1.00;;;;;;10355852;28;84824;-56
2022/03/27 23:46:33;;;;;;;;;;;10.30;1.00;;;;;;10350733;28;84266;-52
2022/03/27 23:51:35;;;;;;;;;;;10.30;1.00;;;;;;10349147;28;85886;-50
2022/03/27 23:56:36;;;;;;;;;;;10.20;1.00;;;;;;10365442;28;84713;-53
